Time;durP1;ratioP1;P1;durP2;ratioP2;P2;SDS_P1;SDS_P2;PMS_P1;PMS_P2;Temp;Humidity;BMP_temperature;BMP_pressure;BME280_temperature;BME280_humidity;BME280_pressure;Samples;Min_cycle;Max_cycle;Signal;HPM_P1;HPM_P2
2021/07/12 00:35:18;;;;;;;;;;;;;;;-146.52;100.00;63329.72;1005983;29;19924;-84
2021/07/12 00:35:49;;;;;;;;;;;;;;;-146.52;100.00;63329.72;1003851;29;19928;-88
2021/07/12 00:36:19;;;;;;;;;;;;;;;-146.52;100.00;63329.72;1013934;29;19895;-84
2021/07/12 00:36:49;;;;;;;;;;;;;;;-146.52;100.00;63329.72;1010092;29;19908;-85
2021/07/12 00:37:20;;;;;;;;;;;;;;;-146.52;100.00;63329.72;1002427;29;19912;-85
2021/07/12 00:37:51;;;;;;;;;;;;;;;-146.52;100.00;63329.72;1006082;29;19912;-86
2021/07/12 00:38:22;;;;;;;;;;;;;;;-146.52;100.00;63329.72;1006201;29;20265;-84
2021/07/12 00:38:52;;;;;;;;;;;;;;;-146.52;100.00;63329.72;1002304;29;19904;-86
2021/07/12 00:39:23;;;;;;;;;;;;;;;-146.52;100.00;63329.72;1013893;29;19892;-82
2021/07/12 00:39:54;;;;;;;;;;;;;;;-146.52;100.00;63329.72;1009990;29;19929;-83
2021/07/12 00:40:25;;;;;;;;;;;;;;;-146.52;100.00;63329.72;1006094;29;19909;-86
2021/07/12 00:40:56;;;;;;;;;;;;;;;-146.52;100.00;63329.72;1009945;29;19945;-84
2021/07/12 00:41:26;;;;;;;;;;;;;;;-146.52;100.00;63329.72;1006107;29;19910;-86
2021/07/12 00:41:57;;;;;;;;;;;;;;;-146.52;100.00;63329.72;1005894;29;19935;-87
2021/07/12 00:42:27;;;;;;;;;;;;;;;-146.52;100.00;63329.72;1006063;29;19904;-89
2021/07/12 00:42:58;;;;;;;;;;;;;;;-146.52;100.00;63329.72;1009974;29;19888;-85
2021/07/12 00:43:28;;;;;;;;;;;;;;;-146.52;100.00;63329.72;1013721;29;19967;-85
2021/07/12 00:43:59;;;;;;;;;;;;;;;-146.52;100.00;63329.72;1013888;29;19941;-84
2021/07/12 00:44:30;;;;;;;;;;;;;;;-146.52;100.00;63329.72;1009995;29;19924;-85
2021/07/12 00:45:01;;;;;;;;;;;;;;;-146.52;100.00;63329.72;1010877;29;19896;-85
2021/07/12 00:45:32;;;;;;;;;;;;;;;-146.52;100.00;63329.72;1010020;29;19996;-83
2021/07/12 00:46:03;;;;;;;;;;;;;;;-146.52;100.00;63329.72;1010025;29;19911;-85
2021/07/12 00:46:34;;;;;;;;;;;;;;;-146.52;100.00;63329.72;1006166;29;19908;-83
2021/07/12 00:47:07;;;;;;;;;;;;;;;-146.52;100.00;63329.72;1003804;29;19897;-84
2021/07/12 00:47:38;;;;;;;;;;;;;;;-146.52;100.00;63329.72;1006156;29;19905;-84
2021/07/12 00:48:10;;;;;;;;;;;;;;;-146.52;100.00;63329.72;1006023;29;19924;-82
2021/07/12 00:48:40;;;;;;;;;;;;;;;-146.52;100.00;63329.72;1009991;29;19904;-83
2021/07/12 00:49:11;;;;;;;;;;;;;;;-146.52;100.00;63329.72;1009895;29;19904;-82
2021/07/12 00:49:42;;;;;;;;;;;;;;;-146.52;100.00;63329.72;1009984;29;19892;-83
2021/07/12 00:50:13;;;;;;;;;;;;;;;-146.52;100.00;63329.72;1002633;29;19925;-85
2021/07/12 00:50:45;;;;;;;;;;;;;;;-146.52;100.00;63329.72;1013875;29;19903;-82
2021/07/12 00:51:16;;;;;;;;;;;;;;;-146.52;100.00;63329.72;1010000;29;19939;-84
2021/07/12 00:51:47;;;;;;;;;;;;;;;-146.52;100.00;63329.72;1002243;29;19915;-84
2021/07/12 00:52:17;;;;;;;;;;;;;;;-146.52;100.00;63329.72;1010089;29;19915;-83
2021/07/12 00:52:49;;;;;;;;;;;;;;;-146.52;100.00;63329.72;1014006;29;19964;-82
2021/07/12 00:53:20;;;;;;;;;;;;;;;-146.52;100.00;63329.72;1010437;29;19920;-83
2021/07/12 00:53:51;;;;;;;;;;;;;;;-146.52;100.00;63329.72;1002354;29;19921;-83
2021/07/12 00:54:27;;;;;;;;;;;;;;;-146.52;100.00;63329.72;1006193;29;19905;-84
2021/07/12 00:54:58;;;;;;;;;;;;;;;-146.52;100.00;63329.72;1002349;29;19930;-82
2021/07/12 00:55:28;;;;;;;;;;;;;;;-146.52;100.00;63329.72;999522;29;19889;-82
2021/07/12 00:56:00;;;;;;;;;;;;;;;-146.52;100.00;63329.72;1003297;29;19896;-84
2021/07/12 00:56:31;;;;;;;;;;;;;;;-146.52;100.00;63329.72;1006442;29;19909;-83
2021/07/12 00:57:04;;;;;;;;;;;;;;;-146.52;100.00;63329.72;1010601;29;19943;-84
2021/07/12 00:57:36;;;;;;;;;;;;;;;-146.52;100.00;63329.72;1010194;29;19935;-84
2021/07/12 00:58:08;;;;;;;;;;;;;;;-146.52;100.00;63329.72;1006065;29;19992;-83
2021/07/12 00:58:40;;;;;;;;;;;;;;;-146.52;100.00;63329.72;1010966;29;19888;-84
2021/07/12 00:59:12;;;;;;;;;;;;;;;-146.52;100.00;63329.72;1010798;29;19965;-84
2021/07/12 00:59:43;;;;;;;;;;;;;;;-146.52;100.00;63329.72;1010050;29;19893;-83
2021/07/12 01:00:14;;;;;;;;;;;;;;;-146.52;100.00;63329.72;1002280;29;19951;-83
2021/07/12 01:00:45;;;;;;;;;;;;;;;-146.52;100.00;63329.72;1009990;29;19975;-84
2021/07/12 01:01:16;;;;;;;;;;;;;;;-146.52;100.00;63329.72;1009996;29;19911;-85
2021/07/12 01:01:46;;;;;;;;;;;;;;;-146.52;100.00;63329.72;1009772;29;19975;-86
2021/07/12 01:02:17;;;;;;;;;;;;;;;-146.52;100.00;63329.72;1002389;29;19904;-85
2021/07/12 01:02:47;;;;;;;;;;;;;;;-146.52;100.00;63329.72;1009695;29;19908;-84
2021/07/12 01:03:18;;;;;;;;;;;;;;;-146.52;100.00;63329.72;1005997;29;19927;-85
2021/07/12 01:03:48;;;;;;;;;;;;;;;-146.52;100.00;63329.72;1009642;29;19921;-84
2021/07/12 01:04:19;;;;;;;;;;;;;;;-146.52;100.00;63329.72;1005365;29;19917;-84
2021/07/12 01:04:49;;;;;;;;;;;;;;;-146.52;100.00;63329.72;1004087;29;19911;-85
2021/07/12 01:05:20;;;;;;;;;;;;;;;-146.52;100.00;63329.72;999810;29;19912;-84
2021/07/12 01:05:51;;;;;;;;;;;;;;;-146.52;100.00;63329.72;999667;29;20370;-83
2021/07/12 01:06:21;;;;;;;;;;;;;;;-146.52;100.00;63329.72;1014614;29;19903;-85
2021/07/12 01:06:51;;;;;;;;;;;;;;;-146.52;100.00;63329.72;1011099;29;19903;-85
2021/07/12 01:07:22;;;;;;;;;;;;;;;-146.52;100.00;63329.72;1003970;29;19951;-88
2021/07/12 01:07:52;;;;;;;;;;;;;;;-146.52;100.00;63329.72;1008310;29;19910;-86
2021/07/12 01:08:23;;;;;;;;;;;;;;;-146.52;100.00;63329.72;1013452;29;19892;-88
2021/07/12 01:08:53;;;;;;;;;;;;;;;-146.52;100.00;63329.72;1002166;29;20032;-90
2021/07/12 01:09:24;;;;;;;;;;;;;;;-146.52;100.00;63329.72;1009681;29;19972;-88
2021/07/12 01:09:56;;;;;;;;;;;;;;;-146.52;100.00;63329.72;1013925;29;19921;-86
2021/07/12 01:10:28;;;;;;;;;;;;;;;-146.52;100.00;63329.72;1009947;29;19932;-85
2021/07/12 01:11:03;;;;;;;;;;;;;;;-146.52;100.00;63329.72;1006064;29;19904;-83
2021/07/12 01:11:40;;;;;;;;;;;;;;;-146.52;100.00;63329.72;1006076;29;19932;-84
2021/07/12 01:12:21;;;;;;;;;;;;;;;-146.52;100.00;63329.72;1004295;29;19900;-83
2021/07/12 01:19:15;;;;;;;;;;;;;;;-146.52;100.00;63329.72;1022582;29;19913;-82
2021/07/12 02:07:22;;;;;;;;;;;;;;;-146.52;100.00;63329.72;999024;29;19936;-82
2021/07/12 02:07:54;;;;;;;;;;;;;;;-146.52;100.00;63329.72;993929;30;19902;-81
2021/07/12 02:08:25;;;;;;;;;;;;;;;-146.52;100.00;63329.72;991340;30;19890;-82
2021/07/12 02:08:55;;;;;;;;;;;;;;;-146.52;100.00;63329.72;998707;29;19893;-82
2021/07/12 02:09:26;;;;;;;;;;;;;;;-146.52;100.00;63329.72;998213;29;19912;-81
2021/07/12 02:09:56;;;;;;;;;;;;;;;-146.52;100.00;63329.72;994613;30;20420;-82
2021/07/12 02:10:27;;;;;;;;;;;;;;;-146.52;100.00;63329.72;990977;30;19913;-82
2021/07/12 02:10:59;;;;;;;;;;;;;;;-146.52;100.00;63329.72;1002406;29;19909;-82
2021/07/12 02:11:29;;;;;;;;;;;;;;;-146.52;100.00;63329.72;1003535;29;19909;-85
2021/07/12 02:12:00;;;;;;;;;;;;;;;-146.52;100.00;63329.72;1006645;29;19943;-85
2021/07/12 02:12:31;;;;;;;;;;;;;;;-146.52;100.00;63329.72;1002747;29;19956;-83
2021/07/12 02:13:02;;;;;;;;;;;;;;;-146.52;100.00;63329.72;1006610;29;19971;-84
2021/07/12 02:13:34;;;;;;;;;;;;;;;-146.52;100.00;63329.72;1006358;29;19888;-83
2021/07/12 02:14:04;;;;;;;;;;;;;;;-146.52;100.00;63329.72;1006461;29;19896;-82
2021/07/12 02:14:35;;;;;;;;;;;;;;;-146.52;100.00;63329.72;1010314;29;19899;-82
2021/07/12 02:15:05;;;;;;;;;;;;;;;-146.52;100.00;63329.72;1010499;29;19971;-83
2021/07/12 02:15:36;;;;;;;;;;;;;;;-146.52;100.00;63329.72;1006363;29;19920;-83
2021/07/12 02:16:06;;;;;;;;;;;;;;;-146.52;100.00;63329.72;1010164;29;19916;-83
2021/07/12 02:16:37;;;;;;;;;;;;;;;-146.52;100.00;63329.72;1006380;29;19909;-83
2021/07/12 02:17:08;;;;;;;;;;;;;;;-146.52;100.00;63329.72;1002975;29;19900;-82
2021/07/12 02:17:39;;;;;;;;;;;;;;;-146.52;100.00;63329.72;1010348;29;19922;-83
2021/07/12 02:18:09;;;;;;;;;;;;;;;-146.52;100.00;63329.72;1010593;29;19904;-83
2021/07/12 02:18:40;;;;;;;;;;;;;;;-146.52;100.00;63329.72;1010257;29;19904;-83
2021/07/12 02:19:11;;;;;;;;;;;;;;;-146.52;100.00;63329.72;1006505;29;19897;-83
2021/07/12 02:19:42;;;;;;;;;;;;;;;-146.52;100.00;63329.72;1006427;29;19899;-83
2021/07/12 02:20:13;;;;;;;;;;;;;;;-146.52;100.00;63329.72;1006834;29;19909;-83
2021/07/12 02:20:44;;;;;;;;;;;;;;;-146.52;100.00;63329.72;1010426;29;19915;-83
2021/07/12 02:21:15;;;;;;;;;;;;;;;-146.52;100.00;63329.72;1014322;29;19907;-84
2021/07/12 02:21:46;;;;;;;;;;;;;;;-146.52;100.00;63329.72;998949;29;19984;-84
2021/07/12 02:22:16;;;;;;;;;;;;;;;-146.52;100.00;63329.72;1006722;29;19955;-82
2021/07/12 02:22:47;;;;;;;;;;;;;;;-146.52;100.00;63329.72;1006702;29;19914;-83
2021/07/12 02:23:18;;;;;;;;;;;;;;;-146.52;100.00;63329.72;1010658;29;19896;-87
2021/07/12 02:23:48;;;;;;;;;;;;;;;-146.52;100.00;63329.72;1002714;29;19921;-84
2021/07/12 02:24:19;;;;;;;;;;;;;;;-146.52;100.00;63329.72;1010376;29;20287;-84
2021/07/12 02:24:49;;;;;;;;;;;;;;;-146.52;100.00;63329.72;1006564;29;19893;-84
2021/07/12 02:25:20;;;;;;;;;;;;;;;-146.52;100.00;63329.72;1006364;29;19918;-83
2021/07/12 02:25:51;;;;;;;;;;;;;;;-146.52;100.00;63329.72;1006049;29;19933;-83
2021/07/12 02:26:22;;;;;;;;;;;;;;;-146.52;100.00;63329.72;1009879;29;19932;-83
2021/07/12 02:26:53;;;;;;;;;;;;;;;-146.52;100.00;63329.72;1002030;29;20044;-82
2021/07/12 02:27:23;;;;;;;;;;;;;;;-146.52;100.00;63329.72;1001869;29;19909;-83
2021/07/12 02:27:54;;;;;;;;;;;;;;;-146.52;100.00;63329.72;1002231;29;19941;-82
2021/07/12 02:28:25;;;;;;;;;;;;;;;-146.52;100.00;63329.72;1009593;29;19916;-82
2021/07/12 02:28:56;;;;;;;;;;;;;;;-146.52;100.00;63329.72;1001884;29;19893;-84
2021/07/12 02:29:28;;;;;;;;;;;;;;;-146.52;100.00;63329.72;998448;29;19938;-84
2021/07/12 02:30:00;;;;;;;;;;;;;;;-146.52;100.00;63329.72;1006064;29;19929;-84
2021/07/12 02:30:30;;;;;;;;;;;;;;;-146.52;100.00;63329.72;1005856;29;19908;-85
2021/07/12 02:31:01;;;;;;;;;;;;;;;-146.52;100.00;63329.72;1002069;29;19908;-84
2021/07/12 02:31:32;;;;;;;;;;;;;;;-146.52;100.00;63329.72;1002129;29;19918;-84
2021/07/12 02:32:20;;;;;;;;;;;;;;;-146.52;100.00;63329.72;1005822;29;19916;-84
2021/07/12 02:41:27;;;;;;;;;;;;;;;-146.52;100.00;63329.72;1040987;23;19926;-92
2021/07/12 02:41:58;;;;;;;;;;;;;;;-146.52;100.00;63329.72;1020185;29;19987;-92
2021/07/12 02:42:28;;;;;;;;;;;;;;;-146.52;100.00;63329.72;1008774;29;19965;-90
2021/07/12 02:43:00;;;;;;;;;;;;;;;-146.52;100.00;63329.72;1001000;29;19905;-91
2021/07/12 02:43:31;;;;;;;;;;;;;;;-146.52;100.00;63329.72;1012388;29;19911;-90
2021/07/12 02:44:01;;;;;;;;;;;;;;;-146.52;100.00;63329.72;1016325;29;19903;-90
2021/07/12 02:44:32;;;;;;;;;;;;;;;-146.52;100.00;63329.72;1005029;29;19904;-90
2021/07/12 02:50:43;;;;;;;;;;;;;;;-146.52;100.00;63329.72;1047937;23;19958;-92
2021/07/12 02:51:14;;;;;;;;;;;;;;;-146.52;100.00;63329.72;1017294;29;19982;-92
2021/07/12 02:51:47;;;;;;;;;;;;;;;-146.52;100.00;63329.72;1005601;29;19913;-91
2021/07/12 02:52:19;;;;;;;;;;;;;;;-146.52;100.00;63329.72;1005878;29;19912;-92
2021/07/12 02:52:51;;;;;;;;;;;;;;;-146.52;100.00;63329.72;1013489;29;19911;-92
2021/07/12 02:53:23;;;;;;;;;;;;;;;-146.52;100.00;63329.72;1009533;29;19912;-92
2021/07/12 02:53:54;;;;;;;;;;;;;;;-146.52;100.00;63329.72;998190;29;20400;-91
2021/07/12 02:54:25;;;;;;;;;;;;;;;-146.52;100.00;63329.72;1009805;29;19912;-91
2021/07/12 02:54:57;;;;;;;;;;;;;;;-146.52;100.00;63329.72;1009615;29;19896;-92
2021/07/12 02:55:27;;;;;;;;;;;;;;;-146.52;100.00;63329.72;1005900;29;19908;-91
2021/07/12 02:55:58;;;;;;;;;;;;;;;-146.52;100.00;63329.72;1013288;29;19912;-92
2021/07/12 02:56:28;;;;;;;;;;;;;;;-146.52;100.00;63329.72;1013338;29;19976;-92
2021/07/12 02:56:59;;;;;;;;;;;;;;;-146.52;100.00;63329.72;1009703;29;20001;-92
2021/07/12 02:57:29;;;;;;;;;;;;;;;-146.52;100.00;63329.72;1013322;29;19912;-91
2021/07/12 02:58:00;;;;;;;;;;;;;;;-146.52;100.00;63329.72;1009657;29;20022;-92
2021/07/12 02:58:30;;;;;;;;;;;;;;;-146.52;100.00;63329.72;1017283;29;19971;-92
2021/07/12 02:59:01;;;;;;;;;;;;;;;-146.52;100.00;63329.72;1009498;29;19896;-92
2021/07/12 02:59:32;;;;;;;;;;;;;;;-146.52;100.00;63329.72;1009740;29;19943;-92
2021/07/12 03:00:04;;;;;;;;;;;;;;;-146.52;100.00;63329.72;1013475;29;19900;-91
2021/07/12 03:00:34;;;;;;;;;;;;;;;-146.52;100.00;63329.72;1002312;29;20028;-91
2021/07/12 03:07:29;;;;;;;;;;;;;;;-146.52;100.00;63329.72;1180347;23;20772;-91
2021/07/12 03:08:02;;;;;;;;;;;;;;;-146.52;100.00;63329.72;1012509;29;19916;-92
2021/07/12 03:08:34;;;;;;;;;;;;;;;-146.52;100.00;63329.72;1009694;29;19933;-91
2021/07/12 03:09:05;;;;;;;;;;;;;;;-146.52;100.00;63329.72;1005613;29;19908;-90
2021/07/12 03:09:37;;;;;;;;;;;;;;;-146.52;100.00;63329.72;1002131;29;19889;-91
2021/07/12 03:17:52;;;;;;;;;;;;;;;-146.52;100.00;63329.72;1089240;23;19919;-91
2021/07/12 03:18:31;;;;;;;;;;;;;;;-146.52;100.00;63329.72;1021553;29;20050;-91
2021/07/12 03:19:01;;;;;;;;;;;;;;;-146.52;100.00;63329.72;1008632;29;19944;-91
2021/07/12 03:19:32;;;;;;;;;;;;;;;-146.52;100.00;63329.72;998352;29;19930;-90
2021/07/12 04:11:29;;;;;;;;;;;;;;;-146.52;100.00;63329.72;1116692;23;19914;-92
2021/07/12 04:11:59;;;;;;;;;;;;;;;-146.52;100.00;63329.72;1021444;29;19926;-91
2021/07/12 05:50:56;;;;;;;;;;;;;;;-146.52;100.00;63329.72;1093206;23;20613;-93
2021/07/12 05:51:27;;;;;;;;;;;;;;;-146.52;100.00;63329.72;1017288;29;19912;-93
2021/07/12 05:51:57;;;;;;;;;;;;;;;-146.52;100.00;63329.72;1013253;29;19916;-92
2021/07/12 05:52:31;;;;;;;;;;;;;;;-146.52;100.00;63329.72;1013656;29;19921;-91
2021/07/12 05:53:02;;;;;;;;;;;;;;;-146.52;100.00;63329.72;1013604;29;19983;-91
2021/07/12 05:53:34;;;;;;;;;;;;;;;-146.52;100.00;63329.72;1013756;29;19908;-91
2021/07/12 05:54:04;;;;;;;;;;;;;;;-146.52;100.00;63329.72;1009906;29;19912;-90
2021/07/12 05:54:34;;;;;;;;;;;;;;;-146.52;100.00;63329.72;998307;29;19959;-91
2021/07/12 05:55:05;;;;;;;;;;;;;;;-146.52;100.00;63329.72;1009645;29;19919;-91
2021/07/12 05:55:36;;;;;;;;;;;;;;;-146.52;100.00;63329.72;1009792;29;19980;-91
2021/07/12 05:56:06;;;;;;;;;;;;;;;-146.52;100.00;63329.72;1006174;29;19913;-92
2021/07/12 05:56:37;;;;;;;;;;;;;;;-146.52;100.00;63329.72;1009546;29;19900;-93
2021/07/12 05:57:07;;;;;;;;;;;;;;;-146.52;100.00;63329.72;1009894;29;19912;-91
2021/07/12 05:57:37;;;;;;;;;;;;;;;-146.52;100.00;63329.72;1009729;29;19896;-92
2021/07/12 05:58:08;;;;;;;;;;;;;;;-146.52;100.00;63329.72;1013721;29;19895;-91
2021/07/12 05:58:38;;;;;;;;;;;;;;;-146.52;100.00;63329.72;1017667;29;19919;-91
2021/07/12 05:59:09;;;;;;;;;;;;;;;-146.52;100.00;63329.72;1010010;29;19920;-92
2021/07/12 05:59:39;;;;;;;;;;;;;;;-146.52;100.00;63329.72;1005709;29;19911;-91
2021/07/12 06:00:10;;;;;;;;;;;;;;;-146.52;100.00;63329.72;1006064;29;19987;-93
2021/07/12 06:00:41;;;;;;;;;;;;;;;-146.52;100.00;63329.72;1006154;29;19903;-92
2021/07/12 06:01:12;;;;;;;;;;;;;;;-146.52;100.00;63329.72;1001949;29;19920;-92
2021/07/12 06:01:42;;;;;;;;;;;;;;;-146.52;100.00;63329.72;1002309;29;19901;-91
2021/07/12 06:02:13;;;;;;;;;;;;;;;-146.52;100.00;63329.72;1005952;29;19900;-92
2021/07/12 06:02:43;;;;;;;;;;;;;;;-146.52;100.00;63329.72;1002470;29;19980;-92
2021/07/12 06:03:14;;;;;;;;;;;;;;;-146.52;100.00;63329.72;1002104;29;19920;-91
2021/07/12 06:03:44;;;;;;;;;;;;;;;-146.52;100.00;63329.72;1002488;29;19897;-93
2021/07/12 06:04:15;;;;;;;;;;;;;;;-146.52;100.00;63329.72;1006028;29;19927;-92
2021/07/12 06:04:46;;;;;;;;;;;;;;;-146.52;100.00;63329.72;998392;29;19920;-91
2021/07/12 06:05:16;;;;;;;;;;;;;;;-146.52;100.00;63329.72;1002284;29;19962;-91
2021/07/12 06:05:47;;;;;;;;;;;;;;;-146.52;100.00;63329.72;1009881;29;19972;-92
2021/07/12 06:06:20;;;;;;;;;;;;;;;-146.52;100.00;63329.72;1006400;29;19912;-92
2021/07/12 06:06:50;;;;;;;;;;;;;;;-146.52;100.00;63329.72;1005998;29;19992;-92
2021/07/12 06:07:22;;;;;;;;;;;;;;;-146.52;100.00;63329.72;1006143;29;19923;-92
2021/07/12 06:07:52;;;;;;;;;;;;;;;-146.52;100.00;63329.72;1002256;29;19933;-91
2021/07/12 06:08:23;;;;;;;;;;;;;;;-146.52;100.00;63329.72;1005869;29;19896;-93
2021/07/12 06:08:53;;;;;;;;;;;;;;;-146.52;100.00;63329.72;1006051;29;19976;-92
2021/07/12 06:09:26;;;;;;;;;;;;;;;-146.52;100.00;63329.72;1005892;29;19924;-92
2021/07/12 06:09:57;;;;;;;;;;;;;;;-146.52;100.00;63329.72;1005840;29;19912;-91
2021/07/12 06:10:27;;;;;;;;;;;;;;;-146.52;100.00;63329.72;1009996;29;19912;-93
2021/07/12 06:10:58;;;;;;;;;;;;;;;-146.52;100.00;63329.72;1009976;29;19900;-93
2021/07/12 06:11:28;;;;;;;;;;;;;;;-146.52;100.00;63329.72;998812;29;19947;-92
2021/07/12 06:11:59;;;;;;;;;;;;;;;-146.52;100.00;63329.72;1002537;29;19917;-93
2021/07/12 06:12:29;;;;;;;;;;;;;;;-146.52;100.00;63329.72;1005803;29;20000;-92
2021/07/12 06:13:00;;;;;;;;;;;;;;;-146.52;100.00;63329.72;1006106;29;19951;-92
2021/07/12 06:13:31;;;;;;;;;;;;;;;-146.52;100.00;63329.72;1006042;29;19913;-91
2021/07/12 06:14:02;;;;;;;;;;;;;;;-146.52;100.00;63329.72;998704;29;19905;-91
2021/07/12 06:14:33;;;;;;;;;;;;;;;-146.52;100.00;63329.72;1002734;29;19908;-93
2021/07/12 06:15:06;;;;;;;;;;;;;;;-146.52;100.00;63329.72;1013852;29;19916;-90
2021/07/12 06:15:37;;;;;;;;;;;;;;;-146.52;100.00;63329.72;1010174;29;19941;-90
2021/07/12 06:16:07;;;;;;;;;;;;;;;-146.52;100.00;63329.72;1009749;29;19900;-90
2021/07/12 06:16:40;;;;;;;;;;;;;;;-146.52;100.00;63329.72;1002371;29;19916;-91
2021/07/12 06:17:10;;;;;;;;;;;;;;;-146.52;100.00;63329.72;1009891;29;19979;-91
2021/07/12 06:17:41;;;;;;;;;;;;;;;-146.52;100.00;63329.72;1010190;29;19928;-91
2021/07/12 06:18:12;;;;;;;;;;;;;;;-146.52;100.00;63329.72;1009789;29;19919;-91
2021/07/12 06:18:43;;;;;;;;;;;;;;;-146.52;100.00;63329.72;1010079;29;19912;-92
2021/07/12 06:19:14;;;;;;;;;;;;;;;-146.52;100.00;63329.72;1009945;29;19916;-94
2021/07/12 06:19:44;;;;;;;;;;;;;;;-146.52;100.00;63329.72;1006225;29;19907;-92
2021/07/12 06:20:17;;;;;;;;;;;;;;;-146.52;100.00;63329.72;1009864;29;20523;-92
2021/07/12 06:20:50;;;;;;;;;;;;;;;-146.52;100.00;63329.72;1009624;29;19928;-91
2021/07/12 06:21:21;;;;;;;;;;;;;;;-146.52;100.00;63329.72;1002187;29;19951;-92
2021/07/12 06:21:51;;;;;;;;;;;;;;;-146.52;100.00;63329.72;1002535;29;19897;-91
2021/07/12 06:22:22;;;;;;;;;;;;;;;-146.52;100.00;63329.72;998320;29;19920;-91
2021/07/12 06:22:52;;;;;;;;;;;;;;;-146.52;100.00;63329.72;1009663;29;19923;-91
2021/07/12 06:23:23;;;;;;;;;;;;;;;-146.52;100.00;63329.72;1013308;29;20000;-92
2021/07/12 06:23:53;;;;;;;;;;;;;;;-146.52;100.00;63329.72;1009653;29;19919;-92
2021/07/12 06:24:24;;;;;;;;;;;;;;;-146.52;100.00;63329.72;1009737;29;19900;-92
2021/07/12 06:24:55;;;;;;;;;;;;;;;-146.52;100.00;63329.72;1002020;29;19912;-92
2021/07/12 06:25:25;;;;;;;;;;;;;;;-146.52;100.00;63329.72;1001783;29;19920;-92
2021/07/12 06:25:56;;;;;;;;;;;;;;;-146.52;100.00;63329.72;1009500;29;19918;-93
2021/07/12 06:26:26;;;;;;;;;;;;;;;-146.52;100.00;63329.72;1009495;29;19900;-92
2021/07/12 06:26:57;;;;;;;;;;;;;;;-146.52;100.00;63329.72;1009539;29;19919;-91
2021/07/12 06:27:27;;;;;;;;;;;;;;;-146.52;100.00;63329.72;1001691;29;19983;-93
2021/07/12 06:27:58;;;;;;;;;;;;;;;-146.52;100.00;63329.72;1001745;29;19938;-91
2021/07/12 06:28:29;;;;;;;;;;;;;;;-146.52;100.00;63329.72;1005634;29;19937;-91
2021/07/12 06:28:59;;;;;;;;;;;;;;;-146.52;100.00;63329.72;1009672;29;19912;-92
2021/07/12 06:29:30;;;;;;;;;;;;;;;-146.52;100.00;63329.72;1013365;29;19911;-92
2021/07/12 06:30:00;;;;;;;;;;;;;;;-146.52;100.00;63329.72;1009497;29;19944;-93
2021/07/12 06:30:31;;;;;;;;;;;;;;;-146.52;100.00;63329.72;1001696;29;19938;-92
2021/07/12 06:31:02;;;;;;;;;;;;;;;-146.52;100.00;63329.72;1013628;29;19915;-93
2021/07/12 06:31:32;;;;;;;;;;;;;;;-146.52;100.00;63329.72;1009642;29;19912;-92
2021/07/12 06:32:03;;;;;;;;;;;;;;;-146.52;100.00;63329.72;1009570;29;20024;-93
2021/07/12 06:32:34;;;;;;;;;;;;;;;-146.52;100.00;63329.72;1009933;29;19912;-93
2021/07/12 06:33:04;;;;;;;;;;;;;;;-146.52;100.00;63329.72;1005835;29;19927;-93
2021/07/12 06:33:37;;;;;;;;;;;;;;;-146.52;100.00;63329.72;1002210;29;19944;-93
2021/07/12 06:34:10;;;;;;;;;;;;;;;-146.52;100.00;63329.72;1013645;29;19971;-93
2021/07/12 06:34:40;;;;;;;;;;;;;;;-146.52;100.00;63329.72;1009907;29;19900;-92
2021/07/12 06:35:11;;;;;;;;;;;;;;;-146.52;100.00;63329.72;1006143;29;19912;-92
2021/07/12 06:35:42;;;;;;;;;;;;;;;-146.52;100.00;63329.72;1001755;29;19912;-91
2021/07/12 06:36:12;;;;;;;;;;;;;;;-146.52;100.00;63329.72;1001870;29;19961;-93
2021/07/12 06:37:03;;;;;;;;;;;;;;;;;;1056908;27;19932;-92
2021/07/12 06:37:33;;;;;;;;;;;;;;;;;;1048862;28;19913;-92
2021/07/12 06:38:04;;;;;;;;;;;;;;;;;;1040408;28;19917;-92
2021/07/12 06:38:34;;;;;;;;;;;;;;;;;;1044812;28;19909;-92
2021/07/12 06:39:04;;;;;;;;;;;;;;;;;;1040595;28;19905;-92
2021/07/12 06:39:35;;;;;;;;;;;;;;;;;;1040433;28;19894;-91
2021/07/12 06:40:05;;;;;;;;;;;;;;;;;;1044753;28;19910;-90
2021/07/12 06:40:35;;;;;;;;;;;;;;;;;;1040462;28;19913;-92
2021/07/12 06:41:06;;;;;;;;;;;;;;;;;;1040522;28;19931;-92
2021/07/12 06:41:36;;;;;;;;;;;;;;;;;;1036538;28;19914;-93
2021/07/12 06:42:06;;;;;;;;;;;;;;;;;;1032001;28;19970;-92
2021/07/12 06:42:37;;;;;;;;;;;;;;;;;;1032243;28;19910;-92
2021/07/12 06:43:07;;;;;;;;;;;;;;;;;;1032183;28;19910;-92
2021/07/12 06:43:37;;;;;;;;;;;;;;;;;;1036223;28;19914;-92
2021/07/12 06:44:08;;;;;;;;;;;;;;;;;;1039771;28;19909;-92
2021/07/12 06:44:38;;;;;;;;;;;;;;;;;;1036237;28;19953;-92
2021/07/12 06:45:08;;;;;;;;;;;;;;;;;;1040575;28;19933;-91
2021/07/12 06:45:39;;;;;;;;;;;;;;;;;;1031872;28;19926;-91
2021/07/12 06:46:09;;;;;;;;;;;;;;;;;;1040690;28;19910;-93
2021/07/12 06:46:42;;;;;;;;;;;;;;;;;;1036228;28;19925;-92
2021/07/12 06:47:12;;;;;;;;;;;;;;;;;;1032377;28;19918;-92
2021/07/12 06:47:42;;;;;;;;;;;;;;;;;;1032326;28;19915;-91
2021/07/12 06:48:12;;;;;;;;;;;;;;;;;;1040292;28;19910;-93
2021/07/12 06:48:43;;;;;;;;;;;;;;;;;;1040500;28;19921;-93
2021/07/12 06:49:13;;;;;;;;;;;;;;;;;;1040188;28;19912;-93
2021/07/12 06:49:43;;;;;;;;;;;;;;;;;;1036071;28;19909;-92
2021/07/12 06:50:14;;;;;;;;;;;;;;;;;;1040178;28;19933;-93
2021/07/12 06:50:44;;;;;;;;;;;;;;;;;;1040320;28;19910;-93
2021/07/12 06:51:14;;;;;;;;;;;;;;;;;;1036152;28;19934;-93
2021/07/12 06:51:45;;;;;;;;;;;;;;;;;;1040879;28;19910;-93
2021/07/12 06:52:16;;;;;;;;;;;;;;;;;;1036711;28;19930;-92
2021/07/12 06:52:51;;;;;;;;;;;;;;;;;;1028999;28;19921;-91
2021/07/12 06:53:22;;;;;;;;;;;;;;;;;;1032718;28;19891;-92
2021/07/12 06:53:52;;;;;;;;;;;;;;;;;;1036723;28;19898;-92
2021/07/12 06:54:23;;;;;;;;;;;;;;;;;;1032707;28;20493;-93
2021/07/12 06:54:53;;;;;;;;;;;;;;;;;;1032588;28;19899;-92
2021/07/12 06:55:25;;;;;;;;;;;;;;;;;;1036321;28;19910;-91
2021/07/12 06:55:56;;;;;;;;;;;;;;;;;;1032243;28;19910;-90
2021/07/12 06:56:26;;;;;;;;;;;;;;;;;;1032357;28;19911;-90
2021/07/12 06:56:57;;;;;;;;;;;;;;;;;;1032636;28;19957;-91
2021/07/12 06:57:27;;;;;;;;;;;;;;;;;;1040679;28;19902;-91
2021/07/12 06:57:57;;;;;;;;;;;;;;;;;;1036770;28;19977;-92
2021/07/12 06:58:28;;;;;;;;;;;;;;;;;;1036483;28;20345;-91
2021/07/12 06:58:58;;;;;;;;;;;;;;;;;;1032507;28;19910;-93
2021/07/12 06:59:28;;;;;;;;;;;;;;;;;;1032555;28;19898;-91
2021/07/12 06:59:59;;;;;;;;;;;;;;;;;;1036335;28;19914;-92
2021/07/12 07:00:31;;;;;;;;;;;;;;;;;;1040910;28;19898;-92
2021/07/12 07:01:01;;;;;;;;;;;;;;;;;;1036694;28;19914;-91
2021/07/12 07:01:32;;;;;;;;;;;;;;;;;;1032648;28;19899;-92
2021/07/12 07:02:02;;;;;;;;;;;;;;;;;;1040521;28;20054;-91
2021/07/12 07:02:35;;;;;;;;;;;;;;;;;;1036577;28;19894;-93
2021/07/12 07:03:05;;;;;;;;;;;;;;;;;;1040655;28;19910;-93
2021/07/12 07:03:36;;;;;;;;;;;;;;;;;;1036666;28;19910;-93
2021/07/12 07:04:08;;;;;;;;;;;;;;;;;;1036634;28;19902;-92
2021/07/12 07:04:41;;;;;;;;;;;;;;;;;;1036592;28;19917;-93
2021/07/12 07:05:11;;;;;;;;;;;;;;;;;;1040987;28;19966;-92
2021/07/12 07:05:41;;;;;;;;;;;;;;;;;;1040783;28;19912;-92
2021/07/12 07:06:12;;;;;;;;;;;;;;;;;;1040977;28;19913;-93
2021/07/12 07:06:42;;;;;;;;;;;;;;;;;;1036808;28;19902;-92
2021/07/12 07:07:12;;;;;;;;;;;;;;;;;;1040808;28;19937;-92
2021/07/12 07:07:43;;;;;;;;;;;;;;;;;;1036746;28;19902;-91
2021/07/12 07:08:13;;;;;;;;;;;;;;;;;;1036909;28;19902;-90
2021/07/12 07:08:43;;;;;;;;;;;;;;;;;;1040853;28;19914;-91
2021/07/12 07:09:14;;;;;;;;;;;;;;;;;;1032665;28;19907;-90
2021/07/12 07:09:44;;;;;;;;;;;;;;;;;;1032499;28;19899;-90
2021/07/12 07:10:15;;;;;;;;;;;;;;;;;;1032879;28;19903;-90
2021/07/12 07:10:45;;;;;;;;;;;;;;;;;;1036928;28;19961;-92
2021/07/12 07:11:15;;;;;;;;;;;;;;;;;;1036846;28;19913;-92
2021/07/12 07:12:18;;;;;;;;;;;;;;;;;;1030487;28;19937;-87
2021/07/12 07:12:50;;;;;;;;;;;;;;;;;;1034506;28;19914;-88
2021/07/12 07:13:20;;;;;;;;;;;;;;;;;;1033615;28;19910;-87